sensor_id;sensor_type;location;lat;lon;timestamp;pressure;altitude;pressure_sealevel;temperature;humidity
23261;BME280;11799;47.740;-3.390;2023-02-22T00:01:18;101350.66;;;8.95;96.20
23261;BME280;11799;47.740;-3.390;2023-02-22T00:03:49;101360.16;;;8.98;96.02
23261;BME280;11799;47.740;-3.390;2023-02-22T00:06:18;101351.41;;;8.97;96.22
23261;BME280;11799;47.740;-3.390;2023-02-22T00:08:46;101348.78;;;8.97;96.45
23261;BME280;11799;47.740;-3.390;2023-02-22T00:11:12;101347.84;;;8.98;96.32
23261;BME280;11799;47.740;-3.390;2023-02-22T00:13:39;101349.63;;;8.98;96.05
23261;BME280;11799;47.740;-3.390;2023-02-22T00:16:08;101353.09;;;8.98;96.28
23261;BME280;11799;47.740;-3.390;2023-02-22T00:18:37;101349.63;;;8.98;96.21
23261;BME280;11799;47.740;-3.390;2023-02-22T00:21:03;101354.88;;;8.98;96.13
23261;BME280;11799;47.740;-3.390;2023-02-22T00:23:30;101354.78;;;8.99;95.71
23261;BME280;11799;47.740;-3.390;2023-02-22T00:25:57;101361.00;;;8.98;96.15
23261;BME280;11799;47.740;-3.390;2023-02-22T00:28:23;101356.59;;;8.99;95.91
23261;BME280;11799;47.740;-3.390;2023-02-22T00:30:50;101358.28;;;9.00;96.46
23261;BME280;11799;47.740;-3.390;2023-02-22T00:33:19;101357.44;;;8.99;95.96
23261;BME280;11799;47.740;-3.390;2023-02-22T00:35:45;101344.44;;;8.96;96.41
23261;BME280;11799;47.740;-3.390;2023-02-22T00:38:12;101356.59;;;8.99;96.31
23261;BME280;11799;47.740;-3.390;2023-02-22T00:40:38;101358.28;;;9.00;95.92
23261;BME280;11799;47.740;-3.390;2023-02-22T00:43:05;101356.59;;;8.99;96.16
23261;BME280;11799;47.740;-3.390;2023-02-22T00:45:33;101364.59;;;8.97;95.81
23261;BME280;11799;47.740;-3.390;2023-02-22T00:48:00;101353.94;;;8.99;95.48
23261;BME280;11799;47.740;-3.390;2023-02-22T00:50:28;101359.13;;;9.00;96.10
23261;BME280;11799;47.740;-3.390;2023-02-22T00:52:54;101357.44;;;8.99;96.19
23261;BME280;11799;47.740;-3.390;2023-02-22T00:55:23;101358.28;;;9.00;95.81
23261;BME280;11799;47.740;-3.390;2023-02-22T00:57:49;101364.47;;;8.99;96.01
23261;BME280;11799;47.740;-3.390;2023-02-22T01:00:23;101352.06;;;9.01;95.59
23261;BME280;11799;47.740;-3.390;2023-02-22T01:02:50;101353.94;;;8.99;95.72
23261;BME280;11799;47.740;-3.390;2023-02-22T01:05:18;101353.84;;;9.00;95.42
23261;BME280;11799;47.740;-3.390;2023-02-22T01:07:44;101355.63;;;9.00;95.37
23261;BME280;11799;47.740;-3.390;2023-02-22T01:10:10;101349.63;;;8.98;95.80
23261;BME280;11799;47.740;-3.390;2023-02-22T01:12:36;101345.94;;;9.00;95.68
23261;BME280;11799;47.740;-3.390;2023-02-22T01:15:04;101356.38;;;9.02;95.45
23261;BME280;11799;47.740;-3.390;2023-02-22T01:17:30;101346.03;;;8.99;95.46
23261;BME280;11799;47.740;-3.390;2023-02-22T01:19:56;101346.88;;;8.99;95.80
23261;BME280;11799;47.740;-3.390;2023-02-22T01:22:22;101345.00;;;9.01;95.37
23261;BME280;11799;47.740;-3.390;2023-02-22T01:24:49;101350.19;;;9.03;95.33
23261;BME280;11799;47.740;-3.390;2023-02-22T01:27:16;101348.28;;;9.05;95.68
23261;BME280;11799;47.740;-3.390;2023-02-22T01:29:42;101349.16;;;9.05;95.84
23261;BME280;11799;47.740;-3.390;2023-02-22T01:32:09;101349.16;;;9.05;95.67
23261;BME280;11799;47.740;-3.390;2023-02-22T01:34:36;101350.00;;;9.06;95.96
23261;BME280;11799;47.740;-3.390;2023-02-22T01:37:02;101343.88;;;9.05;95.85
23261;BME280;11799;47.740;-3.390;2023-02-22T01:39:29;101343.88;;;9.05;95.61
23261;BME280;11799;47.740;-3.390;2023-02-22T01:41:55;101341.25;;;9.05;95.38
23261;BME280;11799;47.740;-3.390;2023-02-22T01:44:35;101342.09;;;9.06;95.54
23261;BME280;11799;47.740;-3.390;2023-02-22T01:47:02;101336.81;;;9.06;95.92
23261;BME280;11799;47.740;-3.390;2023-02-22T01:49:51;101342.84;;;9.08;95.38
23261;BME280;11799;47.740;-3.390;2023-02-22T01:52:18;101338.41;;;9.08;95.53
23261;BME280;11799;47.740;-3.390;2023-02-22T01:54:55;101339.34;;;9.07;95.45
23261;BME280;11799;47.740;-3.390;2023-02-22T01:57:26;101336.63;;;9.09;95.59
23261;BME280;11799;47.740;-3.390;2023-02-22T02:00:02;101342.84;;;9.08;95.38
23261;BME280;11799;47.740;-3.390;2023-02-22T02:02:41;101340.19;;;9.08;95.51
23261;BME280;11799;47.740;-3.390;2023-02-22T02:05:10;101333.25;;;9.07;95.34
23261;BME280;11799;47.740;-3.390;2023-02-22T02:07:37;101342.00;;;9.07;95.49
23261;BME280;11799;47.740;-3.390;2023-02-22T02:10:08;101337.56;;;9.08;95.16
23261;BME280;11799;47.740;-3.390;2023-02-22T02:12:42;101341.13;;;9.07;95.44
23261;BME280;11799;47.740;-3.390;2023-02-22T02:17:49;101330.59;;;9.07;95.72
23261;BME280;11799;47.740;-3.390;2023-02-22T02:20:17;101328.72;;;9.09;95.72
23261;BME280;11799;47.740;-3.390;2023-02-22T02:31:11;101325.13;;;9.10;95.10
23261;BME280;11799;47.740;-3.390;2023-02-22T02:33:46;101320.72;;;9.10;95.15
23261;BME280;11799;47.740;-3.390;2023-02-22T02:36:26;101321.56;;;9.11;95.39
23261;BME280;11799;47.740;-3.390;2023-02-22T02:39:00;101318.94;;;9.11;95.31
23261;BME280;11799;47.740;-3.390;2023-02-22T02:41:34;101318.19;;;9.09;95.27
23261;BME280;11799;47.740;-3.390;2023-02-22T02:44:06;101320.63;;;9.12;95.49
23261;BME280;11799;47.740;-3.390;2023-02-22T02:46:46;101326.72;;;9.12;95.25
23261;BME280;11799;47.740;-3.390;2023-02-22T02:49:19;101314.50;;;9.11;95.18
23261;BME280;11799;47.740;-3.390;2023-02-22T02:51:52;101318.84;;;9.12;94.93
23261;BME280;11799;47.740;-3.390;2023-02-22T02:54:21;101315.34;;;9.12;95.16
23261;BME280;11799;47.740;-3.390;2023-02-22T02:56:51;101321.47;;;9.12;94.75
23261;BME280;11799;47.740;-3.390;2023-02-22T02:59:31;101318.84;;;9.12;95.14
23261;BME280;11799;47.740;-3.390;2023-02-22T03:13:39;101311.03;;;9.11;94.91
23261;BME280;11799;47.740;-3.390;2023-02-22T03:16:23;101306.59;;;9.11;94.99
23261;BME280;11799;47.740;-3.390;2023-02-22T03:30:18;101316.28;;;9.11;94.90
23261;BME280;11799;47.740;-3.390;2023-02-22T03:32:53;101310.19;;;9.10;94.48
23261;BME280;11799;47.740;-3.390;2023-02-22T03:35:24;101305.75;;;9.11;94.60
23261;BME280;11799;47.740;-3.390;2023-02-22T03:37:54;101302.38;;;9.09;94.60
23261;BME280;11799;47.740;-3.390;2023-02-22T03:40:27;101299.75;;;9.09;94.34
23261;BME280;11799;47.740;-3.390;2023-02-22T03:42:59;101305.84;;;9.09;94.16
23261;BME280;11799;47.740;-3.390;2023-02-22T03:45:29;101296.34;;;9.07;93.97
23261;BME280;11799;47.740;-3.390;2023-02-22T03:48:07;101290.13;;;9.08;94.51
23261;BME280;11799;47.740;-3.390;2023-02-22T03:50:36;101293.72;;;9.07;94.44
23261;BME280;11799;47.740;-3.390;2023-02-22T03:53:04;101291.09;;;9.07;94.24
23261;BME280;11799;47.740;-3.390;2023-02-22T03:55:33;101285.91;;;9.05;93.93
23261;BME280;11799;47.740;-3.390;2023-02-22T03:58:02;101285.06;;;9.05;93.68
23261;BME280;11799;47.740;-3.390;2023-02-22T04:00:33;101288.44;;;9.07;93.73
23261;BME280;11799;47.740;-3.390;2023-02-22T04:03:00;101287.59;;;9.06;94.00
23261;BME280;11799;47.740;-3.390;2023-02-22T04:05:26;101289.19;;;9.09;94.22
23261;BME280;11799;47.740;-3.390;2023-02-22T04:07:52;101286.66;;;9.07;94.38
23261;BME280;11799;47.740;-3.390;2023-02-22T04:10:19;101285.81;;;9.07;94.23
23261;BME280;11799;47.740;-3.390;2023-02-22T04:12:44;101281.59;;;9.04;93.97
23261;BME280;11799;47.740;-3.390;2023-02-22T04:15:13;101287.91;;;9.02;93.92
23261;BME280;11799;47.740;-3.390;2023-02-22T04:17:41;101285.56;;;8.97;93.86
23261;BME280;11799;47.740;-3.390;2023-02-22T04:20:11;101288.28;;;8.96;93.76
23261;BME280;11799;47.740;-3.390;2023-02-22T04:22:46;101293.56;;;8.96;93.81
23261;BME280;11799;47.740;-3.390;2023-02-22T04:25:13;101293.66;;;8.94;93.57
23261;BME280;11799;47.740;-3.390;2023-02-22T04:27:39;101292.06;;;8.91;93.85
23261;BME280;11799;47.740;-3.390;2023-02-22T04:30:04;101284.16;;;8.91;93.56
23261;BME280;11799;47.740;-3.390;2023-02-22T04:32:31;101285.09;;;8.90;93.42
23261;BME280;11799;47.740;-3.390;2023-02-22T04:34:58;101279.28;;;8.85;93.68
23261;BME280;11799;47.740;-3.390;2023-02-22T04:37:23;101289.41;;;8.91;93.99
23261;BME280;11799;47.740;-3.390;2023-02-22T04:39:51;101290.47;;;8.89;94.01
23261;BME280;11799;47.740;-3.390;2023-02-22T04:42:16;101289.50;;;8.90;94.22
23261;BME280;11799;47.740;-3.390;2023-02-22T04:44:42;101294.03;;;8.88;93.69
23261;BME280;11799;47.740;-3.390;2023-02-22T04:47:08;101292.16;;;8.90;94.25
23261;BME280;11799;47.740;-3.390;2023-02-22T04:49:34;101287.72;;;8.90;94.32
23261;BME280;11799;47.740;-3.390;2023-02-22T04:52:00;101291.31;;;8.89;94.35
23261;BME280;11799;47.740;-3.390;2023-02-22T04:54:32;101290.25;;;8.92;94.33
23261;BME280;11799;47.740;-3.390;2023-02-22T04:56:58;101285.00;;;8.92;94.16
23261;BME280;11799;47.740;-3.390;2023-02-22T04:59:24;101290.16;;;8.93;94.62
23261;BME280;11799;47.740;-3.390;2023-02-22T05:01:55;101286.78;;;8.91;94.81
23261;BME280;11799;47.740;-3.390;2023-02-22T05:04:21;101292.91;;;8.92;94.59
23261;BME280;11799;47.740;-3.390;2023-02-22T05:06:46;101289.50;;;8.90;94.85
23261;BME280;11799;47.740;-3.390;2023-02-22T05:09:13;101290.38;;;8.90;94.99
23261;BME280;11799;47.740;-3.390;2023-02-22T05:11:38;101289.50;;;8.90;94.66
23261;BME280;11799;47.740;-3.390;2023-02-22T05:14:04;101292.16;;;8.90;94.99
23261;BME280;11799;47.740;-3.390;2023-02-22T05:16:30;101292.16;;;8.90;94.78
23261;BME280;11799;47.740;-3.390;2023-02-22T05:18:55;101304.56;;;8.88;95.27
23261;BME280;11799;47.740;-3.390;2023-02-22T05:21:21;101301.84;;;8.89;95.15
23261;BME280;11799;47.740;-3.390;2023-02-22T05:23:46;101293.19;;;8.87;94.72
23261;BME280;11799;47.740;-3.390;2023-02-22T05:26:12;101292.34;;;8.87;95.01
23261;BME280;11799;47.740;-3.390;2023-02-22T05:28:38;101292.44;;;8.85;95.41
23261;BME280;11799;47.740;-3.390;2023-02-22T05:31:03;101296.00;;;8.84;95.00
23261;BME280;11799;47.740;-3.390;2023-02-22T05:33:29;101299.50;;;8.85;95.23
23261;BME280;11799;47.740;-3.390;2023-02-22T05:35:55;101294.50;;;8.80;95.30
23261;BME280;11799;47.740;-3.390;2023-02-22T05:38:20;101294.31;;;8.83;95.39
23261;BME280;11799;47.740;-3.390;2023-02-22T05:40:47;101297.06;;;8.82;94.99
23261;BME280;11799;47.740;-3.390;2023-02-22T05:43:13;101289.34;;;8.79;95.00
23261;BME280;11799;47.740;-3.390;2023-02-22T05:45:40;101292.91;;;8.78;95.40
23261;BME280;11799;47.740;-3.390;2023-02-22T05:48:07;101293.75;;;8.78;95.04
23261;BME280;11799;47.740;-3.390;2023-02-22T05:50:33;101293.84;;;8.77;95.44
23261;BME280;11799;47.740;-3.390;2023-02-22T05:52:59;101289.53;;;8.76;95.06
23261;BME280;11799;47.740;-3.390;2023-02-22T05:55:25;101291.31;;;8.75;95.44
23261;BME280;11799;47.740;-3.390;2023-02-22T05:57:51;101291.41;;;8.74;95.49
23261;BME280;11799;47.740;-3.390;2023-02-22T06:00:21;101295.84;;;8.73;95.57
23261;BME280;11799;47.740;-3.390;2023-02-22T06:02:53;101296.88;;;8.71;95.27
23261;BME280;11799;47.740;-3.390;2023-02-22T06:05:19;101292.56;;;8.70;95.54
23261;BME280;11799;47.740;-3.390;2023-02-22T06:07:44;101293.50;;;8.69;94.94
23261;BME280;11799;47.740;-3.390;2023-02-22T06:10:10;101293.81;;;8.64;95.00
23261;BME280;11799;47.740;-3.390;2023-02-22T06:12:35;101290.31;;;8.64;95.23
23261;BME280;11799;47.740;-3.390;2023-02-22T06:15:01;101300.09;;;8.62;95.18
23261;BME280;11799;47.740;-3.390;2023-02-22T06:17:26;101294.94;;;8.60;95.47
23261;BME280;11799;47.740;-3.390;2023-02-22T06:19:52;101294.84;;;8.62;95.08
23261;BME280;11799;47.740;-3.390;2023-02-22T06:22:18;101294.09;;;8.59;95.11
23261;BME280;11799;47.740;-3.390;2023-02-22T06:24:44;101295.78;;;8.60;95.66
23261;BME280;11799;47.740;-3.390;2023-02-22T06:27:10;101294.09;;;8.59;95.41
23261;BME280;11799;47.740;-3.390;2023-02-22T06:29:35;101294.94;;;8.60;95.88
23261;BME280;11799;47.740;-3.390;2023-02-22T06:32:01;101294.00;;;8.61;96.19
23261;BME280;11799;47.740;-3.390;2023-02-22T06:34:27;101294.84;;;8.62;95.71
23261;BME280;11799;47.740;-3.390;2023-02-22T06:36:52;101296.44;;;8.64;95.70
23261;BME280;11799;47.740;-3.390;2023-02-22T06:39:18;101291.19;;;8.64;96.38
23261;BME280;11799;47.740;-3.390;2023-02-22T06:41:45;101298.97;;;8.66;96.00
23261;BME280;11799;47.740;-3.390;2023-02-22T06:44:12;101284.84;;;8.67;96.74
23261;BME280;11799;47.740;-3.390;2023-02-22T06:46:38;101290.84;;;8.69;96.28
23261;BME280;11799;47.740;-3.390;2023-02-22T06:49:04;101287.38;;;8.68;96.47
23261;BME280;11799;47.740;-3.390;2023-02-22T06:51:35;101299.50;;;8.71;96.49
23261;BME280;11799;47.740;-3.390;2023-02-22T06:54:01;101289.81;;;8.71;96.39
23261;BME280;11799;47.740;-3.390;2023-02-22T06:56:27;101288.88;;;8.72;96.56
23261;BME280;11799;47.740;-3.390;2023-02-22T06:58:52;101289.72;;;8.73;97.03
23261;BME280;11799;47.740;-3.390;2023-02-22T07:01:18;101285.22;;;8.75;97.08
23261;BME280;11799;47.740;-3.390;2023-02-22T07:03:43;101292.06;;;8.77;97.33
23261;BME280;11799;47.740;-3.390;2023-02-22T07:06:09;101291.22;;;8.77;97.38
23261;BME280;11799;47.740;-3.390;2023-02-22T07:08:35;101297.25;;;8.79;96.79
23261;BME280;11799;47.740;-3.390;2023-02-22T07:11:01;101294.72;;;8.77;97.07
23261;BME280;11799;47.740;-3.390;2023-02-22T07:13:27;101301.56;;;8.80;96.99
23261;BME280;11799;47.740;-3.390;2023-02-22T07:15:54;101299.69;;;8.82;97.52
23261;BME280;11799;47.740;-3.390;2023-02-22T07:18:19;101305.69;;;8.84;97.58
23261;BME280;11799;47.740;-3.390;2023-02-22T07:20:45;101312.75;;;8.83;97.19
23261;BME280;11799;47.740;-3.390;2023-02-22T07:23:14;101314.25;;;8.87;97.47
23261;BME280;11799;47.740;-3.390;2023-02-22T07:25:40;101315.09;;;8.88;97.97
23261;BME280;11799;47.740;-3.390;2023-02-22T07:28:05;101315.84;;;8.90;98.12
23261;BME280;11799;47.740;-3.390;2023-02-22T07:30:32;101315.75;;;8.91;98.18
23261;BME280;11799;47.740;-3.390;2023-02-22T07:33:03;101317.34;;;8.94;98.31
23261;BME280;11799;47.740;-3.390;2023-02-22T07:35:31;101316.31;;;8.97;97.86
23261;BME280;11799;47.740;-3.390;2023-02-22T07:37:57;101322.34;;;8.99;98.54
23261;BME280;11799;47.740;-3.390;2023-02-22T07:40:25;101324.03;;;9.00;98.18
23261;BME280;11799;47.740;-3.390;2023-02-22T07:45:28;101325.53;;;9.04;98.71
23261;BME280;11799;47.740;-3.390;2023-02-22T07:47:54;101335.13;;;9.05;98.27
23261;BME280;11799;47.740;-3.390;2023-02-22T07:50:21;101333.34;;;9.05;98.62
23261;BME280;11799;47.740;-3.390;2023-02-22T07:52:48;101331.53;;;9.06;98.39
23261;BME280;11799;47.740;-3.390;2023-02-22T07:55:16;101335.88;;;9.07;98.18
23261;BME280;11799;47.740;-3.390;2023-02-22T07:57:44;101339.44;;;9.06;98.41
23261;BME280;11799;47.740;-3.390;2023-02-22T08:00:11;101335.78;;;9.08;98.48
23261;BME280;11799;47.740;-3.390;2023-02-22T08:02:41;101336.63;;;9.09;98.55
23261;BME280;11799;47.740;-3.390;2023-02-22T08:05:07;101336.53;;;9.10;98.65
23261;BME280;11799;47.740;-3.390;2023-02-22T08:07:36;101341.88;;;9.09;98.69
23261;BME280;11799;47.740;-3.390;2023-02-22T08:10:03;101340.84;;;9.11;98.52
23261;BME280;11799;47.740;-3.390;2023-02-22T08:12:34;101341.69;;;9.12;99.13
23261;BME280;11799;47.740;-3.390;2023-02-22T08:15:01;101346.88;;;9.13;98.98
23261;BME280;11799;47.740;-3.390;2023-02-22T08:17:26;101344.13;;;9.15;98.50
23261;BME280;11799;47.740;-3.390;2023-02-22T08:19:52;101349.31;;;9.16;98.89
23261;BME280;11799;47.740;-3.390;2023-02-22T08:22:18;101349.31;;;9.16;99.18
23261;BME280;11799;47.740;-3.390;2023-02-22T08:24:44;101350.91;;;9.19;98.86
23261;BME280;11799;47.740;-3.390;2023-02-22T08:27:09;101349.13;;;9.19;99.14
23261;BME280;11799;47.740;-3.390;2023-02-22T08:29:35;101355.13;;;9.21;99.30
23261;BME280;11799;47.740;-3.390;2023-02-22T08:32:01;101353.34;;;9.22;99.18
23261;BME280;11799;47.740;-3.390;2023-02-22T08:34:26;101352.41;;;9.23;99.26
23261;BME280;11799;47.740;-3.390;2023-02-22T08:36:53;101358.41;;;9.25;99.66
23261;BME280;11799;47.740;-3.390;2023-02-22T08:39:19;101361.78;;;9.27;99.20
23261;BME280;11799;47.740;-3.390;2023-02-22T08:41:44;101358.31;;;9.26;99.21
23261;BME280;11799;47.740;-3.390;2023-02-22T08:44:10;101365.91;;;9.31;99.53
23261;BME280;11799;47.740;-3.390;2023-02-22T08:46:35;101365.91;;;9.31;99.48
23261;BME280;11799;47.740;-3.390;2023-02-22T08:49:01;101359.59;;;9.34;99.70
23261;BME280;11799;47.740;-3.390;2023-02-22T08:51:28;101360.25;;;9.37;99.75
23261;BME280;11799;47.740;-3.390;2023-02-22T08:53:53;101364.47;;;9.40;99.90
23261;BME280;11799;47.740;-3.390;2023-02-22T08:56:19;101368.81;;;9.41;99.95
23261;BME280;11799;47.740;-3.390;2023-02-22T08:58:45;101356.38;;;9.43;99.99
23261;BME280;11799;47.740;-3.390;2023-02-22T09:01:10;101365.13;;;9.43;99.81
23261;BME280;11799;47.740;-3.390;2023-02-22T09:03:36;101364.28;;;9.43;99.41
23261;BME280;11799;47.740;-3.390;2023-02-22T09:06:03;101366.06;;;9.42;99.35
23261;BME280;11799;47.740;-3.390;2023-02-22T09:08:28;101368.63;;;9.44;99.31
23261;BME280;11799;47.740;-3.390;2023-02-22T09:10:54;101369.47;;;9.44;99.21
23261;BME280;11799;47.740;-3.390;2023-02-22T09:13:20;101372.94;;;9.45;98.68
23261;BME280;11799;47.740;-3.390;2023-02-22T09:15:45;101376.44;;;9.45;98.77
23261;BME280;11799;47.740;-3.390;2023-02-22T09:18:12;101379.91;;;9.46;98.74
23261;BME280;11799;47.740;-3.390;2023-02-22T09:20:39;101376.53;;;9.44;98.30
23261;BME280;11799;47.740;-3.390;2023-02-22T09:23:06;101383.38;;;9.46;98.00
23261;BME280;11799;47.740;-3.390;2023-02-22T09:25:34;101377.19;;;9.47;98.33
23261;BME280;11799;47.740;-3.390;2023-02-22T09:28:00;101388.38;;;9.51;98.43
23261;BME280;11799;47.740;-3.390;2023-02-22T09:30:29;101386.47;;;9.53;98.28
23261;BME280;11799;47.740;-3.390;2023-02-22T09:33:03;101394.28;;;9.54;98.17
23261;BME280;11799;47.740;-3.390;2023-02-22T09:35:30;101387.97;;;9.57;98.14
23261;BME280;11799;47.740;-3.390;2023-02-22T09:37:57;101388.81;;;9.57;97.58
23261;BME280;11799;47.740;-3.390;2023-02-22T09:40:25;101396.63;;;9.59;97.39
23261;BME280;11799;47.740;-3.390;2023-02-22T09:43:14;101395.69;;;9.60;97.21
23261;BME280;11799;47.740;-3.390;2023-02-22T09:48:42;101387.69;;;9.62;97.06
23261;BME280;11799;47.740;-3.390;2023-02-22T09:51:14;101401.72;;;9.62;97.31
23261;BME280;11799;47.740;-3.390;2023-02-22T09:53:44;101396.44;;;9.62;96.92
23261;BME280;11799;47.740;-3.390;2023-02-22T09:56:17;101400.66;;;9.65;96.53
23261;BME280;11799;47.740;-3.390;2023-02-22T09:58:49;101407.75;;;9.64;96.26
23261;BME280;11799;47.740;-3.390;2023-02-22T10:01:31;101395.41;;;9.65;96.55
23261;BME280;11799;47.740;-3.390;2023-02-22T10:04:18;101411.31;;;9.63;95.77
23261;BME280;11799;47.740;-3.390;2023-02-22T10:07:14;101408.78;;;9.62;95.33
23261;BME280;11799;47.740;-3.390;2023-02-22T10:09:44;101403.50;;;9.62;95.19
23261;BME280;11799;47.740;-3.390;2023-02-22T10:26:19;101418.53;;;9.74;94.26
23261;BME280;11799;47.740;-3.390;2023-02-22T10:29:01;101413.16;;;9.75;94.12
23261;BME280;11799;47.740;-3.390;2023-02-22T10:31:35;101415.69;;;9.77;93.24
23261;BME280;11799;47.740;-3.390;2023-02-22T10:34:08;101416.56;;;9.77;92.65
23261;BME280;11799;47.740;-3.390;2023-02-22T10:36:36;101412.88;;;9.80;93.15
23261;BME280;11799;47.740;-3.390;2023-02-22T10:41:51;101423.94;;;9.85;92.62
23261;BME280;11799;47.740;-3.390;2023-02-22T10:44:20;101421.94;;;9.88;92.75
23261;BME280;11799;47.740;-3.390;2023-02-22T10:46:46;101419.31;;;9.88;92.48
23261;BME280;11799;47.740;-3.390;2023-02-22T10:49:18;101428.06;;;9.89;92.29
23261;BME280;11799;47.740;-3.390;2023-02-22T10:51:47;101427.88;;;9.92;92.00
23261;BME280;11799;47.740;-3.390;2023-02-22T10:54:25;101430.50;;;9.92;92.29
23261;BME280;11799;47.740;-3.390;2023-02-22T10:56:53;101424.38;;;9.91;92.00
23261;BME280;11799;47.740;-3.390;2023-02-22T10:59:33;101424.09;;;9.96;92.18
23261;BME280;11799;47.740;-3.390;2023-02-22T11:02:12;101435.28;;;10.00;92.44
23261;BME280;11799;47.740;-3.390;2023-02-22T11:07:32;101442.16;;;10.02;92.75
23261;BME280;11799;47.740;-3.390;2023-02-22T11:14:51;101441.09;;;10.05;92.18
23261;BME280;11799;47.740;-3.390;2023-02-22T11:17:29;101436.88;;;10.02;91.63
23261;BME280;11799;47.740;-3.390;2023-02-22T11:19:55;101438.66;;;10.02;91.88
23261;BME280;11799;47.740;-3.390;2023-02-22T11:22:39;101446.28;;;10.06;92.14
23261;BME280;11799;47.740;-3.390;2023-02-22T11:25:06;101444.41;;;10.08;92.10
23261;BME280;11799;47.740;-3.390;2023-02-22T11:27:40;101452.97;;;10.12;92.35
23261;BME280;11799;47.740;-3.390;2023-02-22T11:35:32;101442.94;;;10.17;92.72
23261;BME280;11799;47.740;-3.390;2023-02-22T11:40:40;101447.09;;;10.21;92.66
23261;BME280;11799;47.740;-3.390;2023-02-22T11:43:17;101438.25;;;10.22;92.95
23261;BME280;11799;47.740;-3.390;2023-02-22T11:48:27;101441.13;;;10.32;92.67
23261;BME280;11799;47.740;-3.390;2023-02-22T11:51:08;101437.31;;;10.36;92.82
23261;BME280;11799;47.740;-3.390;2023-02-22T11:56:16;101432.34;;;10.44;92.31
23261;BME280;11799;47.740;-3.390;2023-02-22T12:01:42;101431.94;;;10.50;92.01
23261;BME280;11799;47.740;-3.390;2023-02-22T12:04:38;101431.09;;;10.49;90.47
23261;BME280;11799;47.740;-3.390;2023-02-22T12:09:57;101440.81;;;10.49;89.69
23261;BME280;11799;47.740;-3.390;2023-02-22T12:20:02;101454.00;;;9.82;85.45
23261;BME280;11799;47.740;-3.390;2023-02-22T12:22:45;101454.91;;;9.69;86.17
23261;BME280;11799;47.740;-3.390;2023-02-22T12:25:19;101463.78;;;9.53;85.79
23261;BME280;11799;47.740;-3.390;2023-02-22T12:27:50;101453.81;;;9.44;86.25
23261;BME280;11799;47.740;-3.390;2023-02-22T12:30:34;101453.53;;;9.35;87.17
23261;BME280;11799;47.740;-3.390;2023-02-22T12:33:11;101448.66;;;9.28;87.00
23261;BME280;11799;47.740;-3.390;2023-02-22T12:35:42;101453.41;;;9.23;87.33
23261;BME280;11799;47.740;-3.390;2023-02-22T12:38:26;101448.13;;;9.23;87.90
23261;BME280;11799;47.740;-3.390;2023-02-22T12:43:38;101442.72;;;9.25;89.28
23261;BME280;11799;47.740;-3.390;2023-02-22T12:46:09;101448.47;;;9.32;89.54
23261;BME280;11799;47.740;-3.390;2023-02-22T12:51:40;101441.03;;;9.38;88.87
23261;BME280;11799;47.740;-3.390;2023-02-22T12:56:53;101432.25;;;9.52;88.86
23261;BME280;11799;47.740;-3.390;2023-02-22T12:59:33;101435.44;;;9.57;87.54
23261;BME280;11799;47.740;-3.390;2023-02-22T13:02:14;101438.53;;;9.64;87.28
23261;BME280;11799;47.740;-3.390;2023-02-22T13:04:40;101431.19;;;9.69;86.34
23261;BME280;11799;47.740;-3.390;2023-02-22T13:07:29;101435.22;;;9.74;85.59
23261;BME280;11799;47.740;-3.390;2023-02-22T13:10:38;101429.63;;;9.79;84.97
23261;BME280;11799;47.740;-3.390;2023-02-22T13:18:56;101434.53;;;9.98;84.17
23261;BME280;11799;47.740;-3.390;2023-02-22T13:21:45;101427.06;;;10.04;83.27
23261;BME280;11799;47.740;-3.390;2023-02-22T13:24:34;101427.91;;;10.05;81.75
23261;BME280;11799;47.740;-3.390;2023-02-22T13:27:09;101420.84;;;10.05;81.34
23261;BME280;11799;47.740;-3.390;2023-02-22T13:29:41;101418.09;;;10.07;80.75
23261;BME280;11799;47.740;-3.390;2023-02-22T13:48:41;101430.75;;;10.02;78.08
23261;BME280;11799;47.740;-3.390;2023-02-22T13:53:50;101428.91;;;9.89;77.32
23261;BME280;11799;47.740;-3.390;2023-02-22T13:56:21;101430.91;;;9.86;76.75
23261;BME280;11799;47.740;-3.390;2023-02-22T13:59:00;101433.75;;;9.83;76.79
23261;BME280;11799;47.740;-3.390;2023-02-22T14:01:40;101425.81;;;9.83;77.97
23261;BME280;11799;47.740;-3.390;2023-02-22T14:17:48;101451.19;;;9.44;74.00
23261;BME280;11799;47.740;-3.390;2023-02-22T14:22:47;101443.00;;;9.35;74.77
23261;BME280;11799;47.740;-3.390;2023-02-22T14:28:03;101438.56;;;9.35;75.38
23261;BME280;11799;47.740;-3.390;2023-02-22T14:30:32;101452.69;;;9.34;75.29
23261;BME280;11799;47.740;-3.390;2023-02-22T14:32:59;101448.19;;;9.36;75.06
23261;BME280;11799;47.740;-3.390;2023-02-22T14:35:35;101444.59;;;9.37;74.22
23261;BME280;11799;47.740;-3.390;2023-02-22T14:38:05;101441.03;;;9.38;73.29
23261;BME280;11799;47.740;-3.390;2023-02-22T14:40:33;101445.53;;;9.36;71.01
23261;BME280;11799;47.740;-3.390;2023-02-22T14:43:09;101436.59;;;9.39;71.95
23261;BME280;11799;47.740;-3.390;2023-02-22T14:45:56;101436.31;;;9.43;72.03
23261;BME280;11799;47.740;-3.390;2023-02-22T14:48:34;101436.03;;;9.48;72.21
23261;BME280;11799;47.740;-3.390;2023-02-22T14:51:22;101440.25;;;9.50;71.66
23261;BME280;11799;47.740;-3.390;2023-02-22T14:56:22;101440.41;;;9.62;71.79
23261;BME280;11799;47.740;-3.390;2023-02-22T14:59:02;101442.47;;;9.71;71.96
23261;BME280;11799;47.740;-3.390;2023-02-22T15:01:37;101445.66;;;9.76;72.30
23261;BME280;11799;47.740;-3.390;2023-02-22T15:04:26;101433.22;;;9.78;70.25
23261;BME280;11799;47.740;-3.390;2023-02-22T15:06:54;101442.09;;;9.77;69.96
23261;BME280;11799;47.740;-3.390;2023-02-22T15:09:29;101440.28;;;9.77;70.50
23261;BME280;11799;47.740;-3.390;2023-02-22T15:14:32;101444.28;;;9.83;71.11
23261;BME280;11799;47.740;-3.390;2023-02-22T15:17:09;101439.88;;;9.83;70.79
23261;BME280;11799;47.740;-3.390;2023-02-22T15:19:39;101445.13;;;9.83;72.10
23261;BME280;11799;47.740;-3.390;2023-02-22T15:22:18;101445.13;;;9.83;72.33
23261;BME280;11799;47.740;-3.390;2023-02-22T15:24:55;101445.03;;;9.85;72.03
23261;BME280;11799;47.740;-3.390;2023-02-22T15:27:23;101447.91;;;9.82;68.85
23261;BME280;11799;47.740;-3.390;2023-02-22T15:29:49;101445.47;;;9.79;70.46
23261;BME280;11799;47.740;-3.390;2023-02-22T15:32:33;101451.78;;;9.76;70.45